Time;durP1;ratioP1;P1;durP2;ratioP2;P2;SDS_P1;SDS_P2;PMS_P1;PMS_P2;Temp;Humidity;BMP_temperature;BMP_pressure;BME280_temperature;BME280_humidity;BME280_pressure;Samples;Min_cycle;Max_cycle;Signal;HPM_P1;HPM_P2
2022/03/06 00:00:45;;;;;;;63.03;33.53;;;;;;;;;;754008;183;617910;-68
2022/03/06 00:03:11;;;;;;;65.97;33.47;;;;;;;;;;754089;185;629308;-68
2022/03/06 00:05:36;;;;;;;64.20;32.23;;;;;;;;;;762270;184;615963;-68
2022/03/06 00:08:02;;;;;;;61.00;30.70;;;;;;;;;;753404;184;627847;-68
2022/03/06 00:10:28;;;;;;;68.53;34.70;;;;;;;;;;752384;184;613991;-68
2022/03/06 00:12:54;;;;;;;61.10;33.80;;;;;;;;;;761246;184;624504;-68
2022/03/06 00:15:22;;;;;;;62.73;34.70;;;;;;;;;;758498;184;630047;-68
2022/03/06 00:17:46;;;;;;;60.60;33.27;;;;;;;;;;749450;184;636245;-69
2022/03/06 00:20:12;;;;;;;76.07;35.90;;;;;;;;;;751314;183;624886;-68
2022/03/06 00:22:38;;;;;;;63.50;33.67;;;;;;;;;;758800;184;633401;-69
2022/03/06 00:25:03;;;;;;;60.20;32.60;;;;;;;;;;752339;184;634213;-69
2022/03/06 00:27:29;;;;;;;63.33;35.47;;;;;;;;;;762488;183;621221;-69
2022/03/06 00:29:55;;;;;;;59.47;33.53;;;;;;;;;;765523;184;628226;-69
2022/03/06 00:32:21;;;;;;;66.77;35.97;;;;;;;;;;762890;184;627222;-69
2022/03/06 00:34:48;;;;;;;67.10;35.50;;;;;;;;;;752982;184;629031;-69
2022/03/06 00:37:13;;;;;;;66.53;33.60;;;;;;;;;;756613;184;649886;-69
2022/03/06 00:39:38;;;;;;;66.50;35.07;;;;;;;;;;760761;184;635432;-70
2022/03/06 00:42:04;;;;;;;62.37;37.30;;;;;;;;;;756246;184;636881;-69
2022/03/06 00:44:30;;;;;;;79.33;35.50;;;;;;;;;;755981;186;624929;-68
2022/03/06 00:46:56;;;;;;;62.50;34.40;;;;;;;;;;770725;181;628543;-69
2022/03/06 00:49:22;;;;;;;72.37;36.37;;;;;;;;;;752130;184;627098;-69
2022/03/06 00:51:48;;;;;;;63.37;33.90;;;;;;;;;;749041;183;629363;-69
2022/03/06 00:54:14;;;;;;;63.43;34.77;;;;;;;;;;753559;184;626086;-69
2022/03/06 00:56:39;;;;;;;68.00;34.30;;;;;;;;;;755052;183;625497;-69
2022/03/06 00:59:05;;;;;;;60.80;37.17;;;;;;;;;;766516;183;620840;-68
2022/03/06 01:01:31;;;;;;;69.37;36.87;;;;;;;;;;759849;184;619209;-69
2022/03/06 01:03:57;;;;;;;68.30;35.03;;;;;;;;;;752380;183;629377;-69
2022/03/06 01:06:23;;;;;;;64.87;35.43;;;;;;;;;;751955;183;617173;-70
2022/03/06 01:08:49;;;;;;;81.23;37.87;;;;;;;;;;753305;183;618181;-69
2022/03/06 01:11:14;;;;;;;59.83;34.37;;;;;;;;;;763996;183;632818;-69
2022/03/06 01:13:40;;;;;;;66.67;37.77;;;;;;;;;;756172;184;637211;-69
2022/03/06 01:16:06;;;;;;;69.73;38.63;;;;;;;;;;757999;184;624588;-68
2022/03/06 01:18:32;;;;;;;72.10;35.87;;;;;;;;;;757136;184;873246;-69
2022/03/06 01:20:58;;;;;;;80.93;38.80;;;;;;;;;;755297;184;637826;-69
2022/03/06 01:23:24;;;;;;;70.37;36.60;;;;;;;;;;749250;184;621538;-69
2022/03/06 01:25:50;;;;;;;77.77;37.07;;;;;;;;;;759616;183;630811;-69
2022/03/06 01:28:15;;;;;;;67.20;35.00;;;;;;;;;;756995;184;635917;-69
2022/03/06 01:30:41;;;;;;;81.97;43.20;;;;;;;;;;757053;184;644059;-68
2022/03/06 01:33:07;;;;;;;66.13;35.50;;;;;;;;;;755507;184;624681;-68
2022/03/06 01:35:33;;;;;;;67.40;35.80;;;;;;;;;;753315;183;627192;-68
2022/03/06 01:37:59;;;;;;;82.30;35.87;;;;;;;;;;751337;184;625189;-69
2022/03/06 01:40:25;;;;;;;77.07;37.40;;;;;;;;;;754109;184;623983;-67
2022/03/06 01:42:50;;;;;;;72.07;38.57;;;;;;;;;;771755;179;617353;-68
2022/03/06 01:45:16;;;;;;;78.00;41.57;;;;;;;;;;751059;184;627924;-69
2022/03/06 01:47:42;;;;;;;73.27;40.03;;;;;;;;;;751676;184;630901;-68
2022/03/06 01:50:10;;;;;;;84.97;43.33;;;;;;;;;;761119;184;615180;-68
2022/03/06 01:52:36;;;;;;;84.20;41.63;;;;;;;;;;755554;184;629116;-69
2022/03/06 01:55:02;;;;;;;77.17;40.90;;;;;;;;;;755082;184;639471;-69
2022/03/06 01:57:28;;;;;;;67.00;35.40;;;;;;;;;;767472;184;636617;-68
2022/03/06 01:59:54;;;;;;;73.17;40.27;;;;;;;;;;754572;184;635409;-68
2022/03/06 02:02:20;;;;;;;82.50;41.83;;;;;;;;;;761123;184;618326;-68
2022/03/06 02:04:46;;;;;;;72.17;38.60;;;;;;;;;;753124;184;668399;-68
2022/03/06 02:07:12;;;;;;;76.73;37.97;;;;;;;;;;767541;180;613825;-68
2022/03/06 02:09:38;;;;;;;76.22;41.25;;;;;;;;;;755122;183;635449;-68
2022/03/06 02:14:36;;;;;;;78.10;42.03;;;;;;;;;;754229;183;613637;-69
2022/03/06 02:17:02;;;;;;;83.13;43.90;;;;;;;;;;756578;183;631198;-68
2022/03/06 02:19:27;;;;;;;87.50;44.20;;;;;;;;;;766507;183;628342;-68
2022/03/06 02:21:53;;;;;;;80.75;42.40;;;;;;;;;;754286;184;633898;-67
2022/03/06 02:24:19;;;;;;;80.90;41.53;;;;;;;;;;754151;187;633814;-68
2022/03/06 02:26:45;;;;;;;78.03;41.33;;;;;;;;;;757414;183;623340;-69
2022/03/06 02:29:11;;;;;;;79.50;41.73;;;;;;;;;;752577;184;642197;-68
2022/03/06 02:31:37;;;;;;;91.17;47.87;;;;;;;;;;758641;184;619191;-68
2022/03/06 02:34:04;;;;;;;86.93;45.10;;;;;;;;;;755975;183;620149;-68
2022/03/06 02:36:29;;;;;;;86.50;46.57;;;;;;;;;;752828;183;643070;-68
2022/03/06 02:38:54;;;;;;;85.77;43.13;;;;;;;;;;767880;183;614947;-68
2022/03/06 02:41:20;;;;;;;86.30;45.83;;;;;;;;;;754271;184;648533;-68
2022/03/06 02:43:46;;;;;;;88.70;43.30;;;;;;;;;;752001;184;636625;-68
2022/03/06 02:46:12;;;;;;;93.30;48.77;;;;;;;;;;755882;185;620235;-68
2022/03/06 02:48:38;;;;;;;105.20;48.57;;;;;;;;;;754221;184;634178;-68
2022/03/06 02:51:05;;;;;;;104.83;48.53;;;;;;;;;;761681;183;635083;-68
2022/03/06 02:53:30;;;;;;;87.90;46.90;;;;;;;;;;750555;183;623703;-67
2022/03/06 02:55:55;;;;;;;93.37;47.13;;;;;;;;;;767579;184;624938;-68
2022/03/06 02:58:21;;;;;;;91.00;48.27;;;;;;;;;;750107;185;647890;-68
2022/03/06 03:00:47;;;;;;;92.33;47.23;;;;;;;;;;753195;184;635227;-68
2022/03/06 03:03:13;;;;;;;108.93;51.83;;;;;;;;;;755435;184;621271;-68
2022/03/06 03:05:39;;;;;;;98.70;50.20;;;;;;;;;;753153;183;615922;-68
2022/03/06 03:08:05;;;;;;;99.37;47.57;;;;;;;;;;756360;184;625065;-68
2022/03/06 03:10:30;;;;;;;98.93;48.07;;;;;;;;;;762159;184;617635;-68
2022/03/06 03:12:56;;;;;;;101.30;52.17;;;;;;;;;;750417;184;638620;-68
2022/03/06 03:15:22;;;;;;;94.83;46.97;;;;;;;;;;754223;185;644837;-68
2022/03/06 03:17:49;;;;;;;95.45;47.08;;;;;;;;;;755446;184;619682;-67
2022/03/06 03:20:14;;;;;;;101.50;47.27;;;;;;;;;;768888;182;623313;-68
2022/03/06 03:22:40;;;;;;;102.67;48.20;;;;;;;;;;757148;185;628918;-69
2022/03/06 03:25:07;;;;;;;101.13;46.57;;;;;;;;;;748410;184;636760;-68
2022/03/06 03:27:32;;;;;;;104.10;47.30;;;;;;;;;;756549;184;628047;-68
2022/03/06 03:29:58;;;;;;;111.47;50.47;;;;;;;;;;762869;184;643028;-68
2022/03/06 03:32:24;;;;;;;105.27;51.77;;;;;;;;;;764615;180;625865;-68
2022/03/06 03:34:50;;;;;;;119.43;52.80;;;;;;;;;;764012;183;620118;-67
2022/03/06 03:37:16;;;;;;;126.33;56.10;;;;;;;;;;754044;183;626812;-68
2022/03/06 03:39:42;;;;;;;102.77;49.90;;;;;;;;;;751634;184;656285;-68
2022/03/06 03:42:07;;;;;;;128.90;53.23;;;;;;;;;;758030;184;631261;-68
2022/03/06 03:44:33;;;;;;;115.17;51.87;;;;;;;;;;756156;183;625997;-68
2022/03/06 03:46:59;;;;;;;104.43;52.60;;;;;;;;;;754765;184;625560;-68
2022/03/06 03:49:25;;;;;;;116.17;54.73;;;;;;;;;;760531;184;625655;-67
2022/03/06 03:51:51;;;;;;;118.07;51.30;;;;;;;;;;761145;184;623225;-68
2022/03/06 03:54:17;;;;;;;102.30;49.60;;;;;;;;;;764104;184;640995;-68
2022/03/06 03:56:43;;;;;;;110.50;51.33;;;;;;;;;;757679;184;636169;-69
2022/03/06 03:59:08;;;;;;;109.63;51.67;;;;;;;;;;759971;184;635706;-68
2022/03/06 04:01:34;;;;;;;115.60;54.45;;;;;;;;;;761386;184;625951;-69
2022/03/06 04:04:00;;;;;;;112.57;51.03;;;;;;;;;;765582;184;629975;-68
2022/03/06 04:06:26;;;;;;;120.30;53.80;;;;;;;;;;764838;184;622340;-69
2022/03/06 04:08:52;;;;;;;137.27;60.50;;;;;;;;;;763808;184;624107;-69
2022/03/06 04:11:18;;;;;;;119.80;61.80;;;;;;;;;;753120;184;627340;-68
2022/03/06 04:13:44;;;;;;;109.12;55.12;;;;;;;;;;754207;183;637516;-68
2022/03/06 04:16:10;;;;;;;112.17;50.87;;;;;;;;;;754802;180;692264;-69
2022/03/06 04:18:35;;;;;;;104.47;54.20;;;;;;;;;;764424;184;634512;-69
2022/03/06 04:21:01;;;;;;;114.37;55.37;;;;;;;;;;755227;186;614810;-69
2022/03/06 04:23:27;;;;;;;112.90;54.03;;;;;;;;;;757762;184;615490;-68
2022/03/06 04:25:53;;;;;;;94.10;50.17;;;;;;;;;;766152;184;622565;-69
2022/03/06 04:28:19;;;;;;;110.37;48.93;;;;;;;;;;761722;184;632052;-69
2022/03/06 04:30:45;;;;;;;97.73;47.03;;;;;;;;;;754502;183;631197;-69
2022/03/06 04:33:11;;;;;;;98.73;50.00;;;;;;;;;;755065;184;627230;-69
2022/03/06 04:35:36;;;;;;;104.50;49.13;;;;;;;;;;752839;184;797205;-69
2022/03/06 04:38:02;;;;;;;93.23;46.57;;;;;;;;;;761688;185;615748;-69
2022/03/06 04:40:28;;;;;;;98.40;52.30;;;;;;;;;;755606;183;623776;-69
2022/03/06 04:42:54;;;;;;;94.30;47.17;;;;;;;;;;756708;183;628116;-68
2022/03/06 04:45:20;;;;;;;96.73;48.73;;;;;;;;;;753701;183;623557;-68
2022/03/06 04:47:46;;;;;;;103.27;47.87;;;;;;;;;;759281;184;629914;-69
2022/03/06 04:50:12;;;;;;;87.00;44.23;;;;;;;;;;748475;184;639543;-69
2022/03/06 04:52:38;;;;;;;96.07;48.80;;;;;;;;;;747690;183;788129;-69
2022/03/06 04:55:04;;;;;;;107.13;49.23;;;;;;;;;;756170;186;629644;-69
2022/03/06 04:57:30;;;;;;;89.20;46.43;;;;;;;;;;754667;184;615045;-69
2022/03/06 04:59:59;;;;;;;82.60;42.67;;;;;;;;;;756780;184;631605;-69
2022/03/06 05:02:25;;;;;;;82.12;43.90;;;;;;;;;;756551;184;635220;-69
2022/03/06 05:04:51;;;;;;;86.73;43.70;;;;;;;;;;756574;183;627974;-69
2022/03/06 05:07:17;;;;;;;80.63;45.40;;;;;;;;;;752520;184;624457;-68
2022/03/06 05:09:43;;;;;;;74.03;40.50;;;;;;;;;;753286;185;629611;-69
2022/03/06 05:12:09;;;;;;;80.23;43.30;;;;;;;;;;755643;185;625741;-68
2022/03/06 05:14:35;;;;;;;79.50;40.60;;;;;;;;;;751534;185;625883;-69
2022/03/06 05:17:01;;;;;;;79.97;42.07;;;;;;;;;;754841;184;641949;-69
2022/03/06 05:19:27;;;;;;;74.80;38.83;;;;;;;;;;762379;184;640143;-69
2022/03/06 05:21:53;;;;;;;64.40;38.23;;;;;;;;;;758298;184;635091;-69
2022/03/06 05:24:19;;;;;;;70.93;38.30;;;;;;;;;;762117;184;687748;-69
2022/03/06 05:26:44;;;;;;;87.27;38.47;;;;;;;;;;760419;184;633793;-69
2022/03/06 05:29:10;;;;;;;69.33;37.83;;;;;;;;;;755626;184;622428;-69
2022/03/06 05:31:36;;;;;;;70.30;35.80;;;;;;;;;;753759;184;900485;-69
2022/03/06 05:34:02;;;;;;;59.83;37.13;;;;;;;;;;755024;184;608893;-69
2022/03/06 05:36:28;;;;;;;64.10;38.73;;;;;;;;;;760292;183;638409;-69
2022/03/06 05:38:54;;;;;;;74.17;38.27;;;;;;;;;;759922;184;634482;-68
2022/03/06 05:41:20;;;;;;;64.23;38.10;;;;;;;;;;753004;185;623455;-69
2022/03/06 05:43:45;;;;;;;70.10;38.87;;;;;;;;;;765617;183;629465;-69
2022/03/06 05:46:11;;;;;;;72.25;38.67;;;;;;;;;;753805;183;620309;-68
2022/03/06 05:48:37;;;;;;;66.83;37.00;;;;;;;;;;754243;184;629935;-68
2022/03/06 05:51:03;;;;;;;79.47;37.43;;;;;;;;;;760934;183;625703;-69
2022/03/06 05:53:29;;;;;;;64.10;35.73;;;;;;;;;;752292;184;617153;-69
2022/03/06 05:55:55;;;;;;;69.27;38.13;;;;;;;;;;757018;184;627606;-67
2022/03/06 05:58:20;;;;;;;65.13;37.07;;;;;;;;;;756213;184;636015;-68
2022/03/06 06:00:46;;;;;;;69.10;38.07;;;;;;;;;;763030;183;644505;-69
2022/03/06 06:03:12;;;;;;;66.70;38.90;;;;;;;;;;753928;184;635614;-68
2022/03/06 06:05:38;;;;;;;67.07;35.97;;;;;;;;;;757109;184;640908;-69
2022/03/06 06:08:04;;;;;;;64.70;37.80;;;;;;;;;;759358;184;739033;-68
2022/03/06 06:10:30;;;;;;;62.40;35.27;;;;;;;;;;755192;184;632991;-69
2022/03/06 06:12:56;;;;;;;67.83;40.23;;;;;;;;;;752807;184;635517;-69
2022/03/06 06:15:21;;;;;;;69.50;36.97;;;;;;;;;;761601;184;626606;-69
2022/03/06 06:17:47;;;;;;;80.80;41.20;;;;;;;;;;759747;183;632766;-69
2022/03/06 06:20:14;;;;;;;92.47;52.37;;;;;;;;;;755850;184;645142;-69
2022/03/06 06:22:39;;;;;;;93.57;45.57;;;;;;;;;;758300;184;638490;-68
2022/03/06 06:25:05;;;;;;;76.37;44.67;;;;;;;;;;756303;183;626191;-68
2022/03/06 06:27:31;;;;;;;91.23;49.30;;;;;;;;;;756061;184;616452;-67
2022/03/06 06:29:57;;;;;;;111.93;52.03;;;;;;;;;;754960;184;623743;-68
2022/03/06 06:32:22;;;;;;;96.63;53.27;;;;;;;;;;757612;184;630365;-68
2022/03/06 06:34:48;;;;;;;107.87;56.77;;;;;;;;;;753528;184;632407;-68
2022/03/06 06:37:14;;;;;;;94.40;54.40;;;;;;;;;;753198;184;626831;-68
2022/03/06 06:39:40;;;;;;;84.17;43.77;;;;;;;;;;762527;184;663495;-69
2022/03/06 06:42:06;;;;;;;109.63;56.27;;;;;;;;;;757124;184;699130;-68
2022/03/06 06:44:32;;;;;;;93.97;48.50;;;;;;;;;;754126;184;631139;-66
2022/03/06 06:46:58;;;;;;;94.33;47.07;;;;;;;;;;761894;184;628035;-67
2022/03/06 06:49:23;;;;;;;118.00;64.40;;;;;;;;;;752054;184;617846;-67
2022/03/06 06:51:50;;;;;;;105.17;51.00;;;;;;;;;;756123;183;626047;-67
2022/03/06 06:54:15;;;;;;;107.93;51.37;;;;;;;;;;757635;183;628358;-66
2022/03/06 06:56:41;;;;;;;92.77;49.50;;;;;;;;;;755425;185;628161;-67
2022/03/06 06:59:07;;;;;;;108.33;54.23;;;;;;;;;;759799;183;637952;-68
2022/03/06 07:01:33;;;;;;;107.03;50.90;;;;;;;;;;755453;184;627328;-68
2022/03/06 07:03:59;;;;;;;103.33;51.50;;;;;;;;;;761867;184;625413;-68
2022/03/06 07:06:25;;;;;;;101.53;49.23;;;;;;;;;;756815;184;617788;-67
2022/03/06 07:08:51;;;;;;;97.83;51.27;;;;;;;;;;757970;184;619681;-68
2022/03/06 07:11:16;;;;;;;95.05;52.28;;;;;;;;;;759572;184;638422;-68
2022/03/06 07:13:42;;;;;;;104.43;49.00;;;;;;;;;;755143;184;747885;-68
2022/03/06 07:16:08;;;;;;;93.73;46.23;;;;;;;;;;755387;183;644861;-67
2022/03/06 07:18:34;;;;;;;95.77;47.60;;;;;;;;;;761167;184;622136;-68
2022/03/06 07:21:02;;;;;;;108.33;54.07;;;;;;;;;;757717;183;628255;-67
2022/03/06 07:23:26;;;;;;;208.77;91.97;;;;;;;;;;759480;183;625623;-67
2022/03/06 07:25:51;;;;;;;162.87;71.47;;;;;;;;;;758799;183;629344;-68
2022/03/06 07:28:17;;;;;;;99.27;52.10;;;;;;;;;;759201;184;621991;-68
2022/03/06 07:30:43;;;;;;;158.10;71.43;;;;;;;;;;753609;184;629444;-67
2022/03/06 07:33:09;;;;;;;117.53;54.77;;;;;;;;;;754540;184;624147;-67
2022/03/06 07:35:35;;;;;;;93.90;49.80;;;;;;;;;;757731;184;615591;-68
2022/03/06 07:38:01;;;;;;;103.67;52.53;;;;;;;;;;754028;184;619968;-68
2022/03/06 07:40:26;;;;;;;112.97;56.60;;;;;;;;;;754547;184;615308;-67
2022/03/06 07:42:52;;;;;;;86.93;49.27;;;;;;;;;;759696;184;627342;-68
2022/03/06 07:45:18;;;;;;;99.70;54.27;;;;;;;;;;757358;183;709068;-68
2022/03/06 07:47:45;;;;;;;111.03;58.10;;;;;;;;;;754415;184;641808;-68
2022/03/06 07:50:11;;;;;;;143.07;77.57;;;;;;;;;;754517;184;645802;-68
2022/03/06 07:52:37;;;;;;;108.63;53.00;;;;;;;;;;751537;184;626628;-67
2022/03/06 07:55:03;;;;;;;123.83;63.70;;;;;;;;;;757624;184;618954;-67
2022/03/06 07:57:29;;;;;;;146.13;78.27;;;;;;;;;;753753;184;638173;-68
2022/03/06 07:59:55;;;;;;;123.80;67.50;;;;;;;;;;757459;184;619814;-67
2022/03/06 08:02:21;;;;;;;104.07;52.73;;;;;;;;;;756288;184;634072;-67
2022/03/06 08:04:47;;;;;;;127.73;60.50;;;;;;;;;;756819;184;617074;-68
2022/03/06 08:07:13;;;;;;;107.30;55.13;;;;;;;;;;763475;183;623942;-69
2022/03/06 08:09:39;;;;;;;115.03;54.67;;;;;;;;;;752778;183;671273;-67
2022/03/06 08:12:05;;;;;;;116.83;56.87;;;;;;;;;;753314;183;627435;-67
2022/03/06 08:14:31;;;;;;;105.13;53.40;;;;;;;;;;752562;184;634504;-67
2022/03/06 08:16:56;;;;;;;110.43;56.40;;;;;;;;;;767634;179;628905;-67
2022/03/06 08:19:22;;;;;;;119.23;58.00;;;;;;;;;;756817;183;632240;-66
2022/03/06 08:21:48;;;;;;;149.00;73.23;;;;;;;;;;755131;183;637767;-66
2022/03/06 08:24:14;;;;;;;101.40;48.43;;;;;;;;;;760716;183;614990;-66
2022/03/06 08:26:40;;;;;;;103.50;53.67;;;;;;;;;;756522;182;632984;-65
2022/03/06 08:29:06;;;;;;;106.87;56.10;;;;;;;;;;755595;184;867177;-65
2022/03/06 08:31:31;;;;;;;108.40;53.97;;;;;;;;;;753665;184;1520308;-65
2022/03/06 08:33:57;;;;;;;120.43;57.87;;;;;;;;;;754159;184;623752;-63
2022/03/06 08:36:23;;;;;;;106.57;56.40;;;;;;;;;;754154;184;633629;-64
2022/03/06 08:38:49;;;;;;;116.73;52.40;;;;;;;;;;758099;184;625137;-64
2022/03/06 08:41:15;;;;;;;125.10;59.23;;;;;;;;;;761590;184;624963;-61
2022/03/06 08:43:41;;;;;;;128.60;61.00;;;;;;;;;;753071;184;619281;-63
2022/03/06 08:46:07;;;;;;;125.03;61.30;;;;;;;;;;753911;183;631275;-64
2022/03/06 08:48:32;;;;;;;122.57;63.80;;;;;;;;;;759164;184;640868;-64
2022/03/06 08:50:58;;;;;;;122.80;60.00;;;;;;;;;;752942;184;634338;-65
2022/03/06 08:53:24;;;;;;;131.40;57.73;;;;;;;;;;756305;184;623370;-64
2022/03/06 08:55:50;;;;;;;121.40;56.90;;;;;;;;;;754797;184;655993;-64
2022/03/06 08:58:16;;;;;;;80.83;35.20;;;;;;;;;;756385;184;640511;-64
2022/03/06 09:00:42;;;;;;;93.93;50.23;;;;;;;;;;752198;184;628063;-65
2022/03/06 09:03:08;;;;;;;104.60;53.03;;;;;;;;;;759569;184;619145;-65
2022/03/06 09:05:38;;;;;;;107.60;51.50;;;;;;;;;;748704;184;652755;-64
2022/03/06 09:08:00;;;;;;;97.80;47.77;;;;;;;;;;758146;184;633461;-63
2022/03/06 09:10:25;;;;;;;92.67;47.10;;;;;;;;;;763362;184;637202;-62
2022/03/06 09:12:51;;;;;;;81.30;39.47;;;;;;;;;;768130;181;647238;-63
2022/03/06 09:15:17;;;;;;;99.00;50.60;;;;;;;;;;754059;184;632801;-64
2022/03/06 09:17:43;;;;;;;70.07;35.13;;;;;;;;;;751985;184;626841;-64
2022/03/06 09:20:09;;;;;;;96.07;47.10;;;;;;;;;;756151;184;628901;-64
2022/03/06 09:22:35;;;;;;;92.37;44.90;;;;;;;;;;753243;184;624181;-64
2022/03/06 09:25:00;;;;;;;90.53;46.50;;;;;;;;;;752876;184;625202;-64
2022/03/06 09:27:26;;;;;;;87.50;45.57;;;;;;;;;;756275;184;632710;-64
2022/03/06 09:29:52;;;;;;;95.57;45.60;;;;;;;;;;759349;184;625025;-64
2022/03/06 09:32:18;;;;;;;96.77;47.33;;;;;;;;;;760391;183;633322;-64
2022/03/06 09:34:44;;;;;;;94.23;42.70;;;;;;;;;;754486;183;617050;-65
2022/03/06 09:37:10;;;;;;;82.73;42.30;;;;;;;;;;756532;184;638083;-64
2022/03/06 09:39:36;;;;;;;90.53;45.50;;;;;;;;;;755480;184;629143;-64
2022/03/06 09:42:02;;;;;;;76.57;39.80;;;;;;;;;;754330;184;878177;-62
2022/03/06 09:44:28;;;;;;;86.97;41.90;;;;;;;;;;754987;184;613677;-64
2022/03/06 09:46:55;;;;;;;52.97;28.33;;;;;;;;;;754216;184;630947;-64
2022/03/06 09:49:19;;;;;;;116.77;55.50;;;;;;;;;;760564;184;638065;-64
2022/03/06 09:51:45;;;;;;;79.23;40.80;;;;;;;;;;763062;184;619204;-64
2022/03/06 09:54:11;;;;;;;54.60;27.57;;;;;;;;;;758261;184;632477;-64
2022/03/06 09:56:37;;;;;;;87.87;47.90;;;;;;;;;;755834;184;625959;-65
2022/03/06 09:59:03;;;;;;;63.13;34.90;;;;;;;;;;764848;184;619605;-62
2022/03/06 10:01:29;;;;;;;78.47;40.00;;;;;;;;;;755379;184;627096;-64
2022/03/06 10:03:54;;;;;;;53.30;24.63;;;;;;;;;;753839;184;627306;-63
2022/03/06 10:06:20;;;;;;;44.77;26.20;;;;;;;;;;752233;185;630257;-64
2022/03/06 10:08:46;;;;;;;34.23;21.30;;;;;;;;;;755728;186;617095;-63
2022/03/06 10:11:12;;;;;;;56.80;30.80;;;;;;;;;;760390;184;630250;-64
2022/03/06 10:13:38;;;;;;;58.20;28.53;;;;;;;;;;753753;184;617656;-64
2022/03/06 10:16:07;;;;;;;53.27;32.00;;;;;;;;;;762326;184;631763;-64
2022/03/06 10:18:41;;;;;;;56.37;30.73;;;;;;;;;;753571;184;802274;-64
2022/03/06 10:21:23;;;;;;;42.00;19.20;;;;;;;;;;758188;184;617342;-65
2022/03/06 10:23:50;;;;;;;41.73;24.00;;;;;;;;;;752539;184;689739;-64
2022/03/06 10:26:15;;;;;;;44.07;22.97;;;;;;;;;;755298;184;625393;-63
2022/03/06 10:28:42;;;;;;;49.87;24.33;;;;;;;;;;759274;183;620577;-63
2022/03/06 10:31:08;;;;;;;40.73;22.90;;;;;;;;;;761610;183;636547;-64
2022/03/06 10:33:34;;;;;;;50.58;24.08;;;;;;;;;;757622;183;619201;-65
2022/03/06 10:36:02;;;;;;;36.47;18.87;;;;;;;;;;756645;186;616581;-64
2022/03/06 10:38:27;;;;;;;23.53;13.90;;;;;;;;;;755141;184;617956;-63
2022/03/06 10:40:55;;;;;;;9.80;7.70;;;;;;;;;;756584;184;702477;-64
2022/03/06 10:43:23;;;;;;;18.97;11.63;;;;;;;;;;751257;184;636118;-63
2022/03/06 10:45:49;;;;;;;26.30;14.03;;;;;;;;;;754393;186;627774;-64
2022/03/06 10:48:15;;;;;;;21.40;13.20;;;;;;;;;;749850;183;619264;-65
2022/03/06 10:50:40;;;;;;;17.23;10.40;;;;;;;;;;758543;183;645226;-64
2022/03/06 10:53:12;;;;;;;43.50;24.70;;;;;;;;;;758455;183;627064;-63
2022/03/06 10:55:38;;;;;;;38.37;19.37;;;;;;;;;;755927;184;625597;-64
2022/03/06 10:58:04;;;;;;;29.03;17.40;;;;;;;;;;748347;186;633716;-65
2022/03/06 11:00:30;;;;;;;18.50;9.60;;;;;;;;;;748097;183;626948;-63
2022/03/06 11:02:55;;;;;;;31.13;16.13;;;;;;;;;;748830;185;618481;-64
2022/03/06 11:05:21;;;;;;;27.10;15.87;;;;;;;;;;752744;185;628468;-64
2022/03/06 11:07:47;;;;;;;26.37;15.30;;;;;;;;;;749303;185;635951;-64
2022/03/06 11:10:13;;;;;;;29.10;14.43;;;;;;;;;;747777;187;627973;-64
2022/03/06 11:12:39;;;;;;;33.60;14.67;;;;;;;;;;741910;186;619237;-64
2022/03/06 11:15:05;;;;;;;25.47;16.00;;;;;;;;;;741747;187;624743;-64
2022/03/06 11:17:32;;;;;;;33.90;17.47;;;;;;;;;;761598;183;654092;-64
2022/03/06 11:19:57;;;;;;;33.40;18.43;;;;;;;;;;753409;184;629218;-66
2022/03/06 11:22:24;;;;;;;34.80;21.30;;;;;;;;;;753960;183;631684;-65
2022/03/06 11:24:50;;;;;;;22.97;12.30;;;;;;;;;;759915;183;628789;-64
2022/03/06 11:27:26;;;;;;;43.47;20.93;;;;;;;;;;768974;184;615929;-63
2022/03/06 11:30:11;;;;;;;42.10;18.07;;;;;;;;;;751681;184;634885;-63
2022/03/06 11:32:35;;;;;;;38.43;23.53;;;;;;;;;;744273;184;661900;-65
2022/03/06 11:35:04;;;;;;;26.57;15.77;;;;;;;;;;751856;184;642379;-64
2022/03/06 11:37:31;;;;;;;29.93;16.40;;;;;;;;;;749405;184;628684;-64
2022/03/06 11:39:57;;;;;;;35.97;21.03;;;;;;;;;;757288;184;637268;-63
2022/03/06 11:42:28;;;;;;;26.80;16.10;;;;;;;;;;759763;183;695786;-64
2022/03/06 11:44:57;;;;;;;31.93;16.87;;;;;;;;;;759551;183;627087;-64
2022/03/06 11:47:22;;;;;;;32.10;18.97;;;;;;;;;;757634;184;613572;-64
2022/03/06 11:49:52;;;;;;;36.00;17.60;;;;;;;;;;765753;183;625992;-64
2022/03/06 11:52:23;;;;;;;20.23;14.80;;;;;;;;;;757122;184;633320;-64
2022/03/06 11:54:49;;;;;;;29.03;13.97;;;;;;;;;;758011;183;636311;-64
2022/03/06 11:57:15;;;;;;;35.17;19.17;;;;;;;;;;763301;184;634002;-64
2022/03/06 11:59:44;;;;;;;24.97;10.90;;;;;;;;;;756600;183;633576;-64
2022/03/06 12:02:08;;;;;;;23.60;12.77;;;;;;;;;;756320;184;633042;-64
2022/03/06 12:04:34;;;;;;;22.03;13.70;;;;;;;;;;751943;183;622950;-63
2022/03/06 12:07:02;;;;;;;22.30;13.20;;;;;;;;;;758060;183;615901;-64
2022/03/06 12:09:27;;;;;;;61.07;26.10;;;;;;;;;;758411;184;621083;-64
2022/03/06 12:11:53;;;;;;;32.40;16.17;;;;;;;;;;738161;188;612941;-64
2022/03/06 12:14:22;;;;;;;18.27;9.23;;;;;;;;;;753100;184;619609;-64
2022/03/06 12:16:54;;;;;;;17.57;9.93;;;;;;;;;;755516;184;635917;-64
2022/03/06 12:19:20;;;;;;;26.50;13.27;;;;;;;;;;754630;184;657300;-64
2022/03/06 12:21:47;;;;;;;23.43;15.00;;;;;;;;;;759067;184;629766;-64
2022/03/06 12:24:14;;;;;;;28.90;14.70;;;;;;;;;;755552;184;636529;-64
2022/03/06 12:26:42;;;;;;;29.33;14.50;;;;;;;;;;757396;184;636663;-64
2022/03/06 12:29:08;;;;;;;28.70;18.07;;;;;;;;;;754013;184;632421;-65
2022/03/06 12:31:34;;;;;;;31.03;19.40;;;;;;;;;;753757;184;634487;-64
2022/03/06 12:33:59;;;;;;;30.47;18.23;;;;;;;;;;748947;186;613768;-64
2022/03/06 12:36:26;;;;;;;22.70;14.23;;;;;;;;;;760309;184;640144;-64
2022/03/06 12:38:54;;;;;;;32.13;17.23;;;;;;;;;;752675;183;632272;-64
2022/03/06 12:41:20;;;;;;;34.57;20.60;;;;;;;;;;761032;184;636133;-64
2022/03/06 12:43:46;;;;;;;45.57;20.07;;;;;;;;;;753866;184;619091;-65
2022/03/06 12:46:12;;;;;;;25.35;13.35;;;;;;;;;;746817;184;642492;-64
2022/03/06 12:48:38;;;;;;;19.77;11.77;;;;;;;;;;761160;186;625025;-65
2022/03/06 12:51:03;;;;;;;25.77;15.20;;;;;;;;;;757590;184;631606;-63
2022/03/06 12:53:30;;;;;;;25.70;11.67;;;;;;;;;;759170;183;633493;-63
2022/03/06 12:55:56;;;;;;;29.30;17.57;;;;;;;;;;764327;183;654460;-63
2022/03/06 12:58:22;;;;;;;29.90;15.90;;;;;;;;;;766363;183;620720;-64
2022/03/06 13:00:48;;;;;;;44.90;21.00;;;;;;;;;;759772;183;629086;-65
2022/03/06 13:03:15;;;;;;;25.93;15.67;;;;;;;;;;747865;184;627200;-64
2022/03/06 13:05:40;;;;;;;23.97;16.30;;;;;;;;;;766110;183;618760;-64
2022/03/06 13:08:07;;;;;;;22.30;12.20;;;;;;;;;;755615;184;635434;-64
2022/03/06 13:10:32;;;;;;;37.40;22.13;;;;;;;;;;755247;183;636299;-64
2022/03/06 13:12:58;;;;;;;30.17;17.23;;;;;;;;;;756254;184;633534;-65
2022/03/06 13:15:24;;;;;;;28.97;19.20;;;;;;;;;;755163;184;631310;-64
2022/03/06 13:17:56;;;;;;;24.10;15.50;;;;;;;;;;755052;185;615657;-65
2022/03/06 13:20:22;;;;;;;33.70;17.43;;;;;;;;;;762330;184;632831;-64
2022/03/06 13:22:47;;;;;;;36.67;21.37;;;;;;;;;;765472;184;620660;-64
2022/03/06 13:25:13;;;;;;;20.87;13.00;;;;;;;;;;755317;184;628135;-64
2022/03/06 13:27:39;;;;;;;75.53;33.50;;;;;;;;;;751174;184;639747;-63
2022/03/06 13:30:14;;;;;;;60.30;29.00;;;;;;;;;;754956;184;644275;-64
2022/03/06 13:32:43;;;;;;;38.60;16.40;;;;;;;;;;760043;184;629546;-65
2022/03/06 13:35:09;;;;;;;35.03;18.20;;;;;;;;;;753985;184;640519;-64
2022/03/06 13:37:35;;;;;;;17.87;11.30;;;;;;;;;;755956;184;627792;-63
2022/03/06 13:40:01;;;;;;;35.00;19.10;;;;;;;;;;763320;184;620865;-64
2022/03/06 13:42:29;;;;;;;19.83;12.60;;;;;;;;;;747285;187;653620;-64
2022/03/06 13:44:57;;;;;;;26.67;15.00;;;;;;;;;;756690;185;630982;-64
2022/03/06 13:47:22;;;;;;;18.33;12.73;;;;;;;;;;753670;184;634749;-63
2022/03/06 13:49:48;;;;;;;9.73;6.70;;;;;;;;;;757942;184;624702;-63
2022/03/06 13:52:14;;;;;;;25.17;12.87;;;;;;;;;;754895;184;621488;-64
2022/03/06 13:54:40;;;;;;;26.60;14.57;;;;;;;;;;750574;184;671105;-63
2022/03/06 13:57:06;;;;;;;31.97;19.60;;;;;;;;;;760310;184;624937;-64